Ufimets — UFNC — position and weather

sailwx.info

Track history (hours):
 
Tides and Currents Weather Stations Pressure Air Temp Water Temp Dewpoint Dewpoint Depression Visibility Wind Speed Wind Dir Waves Ship Positions

Ufimets

Last reported at 2017-Aug-20 00:30 UTC. Time now 2017-Aug-20 00:35 UTC.
Position N 61°01' E 028°27'.

Length 82 m; draft 1.8 m.

Type: Ship. MMSI: 27343260.

Date/timePositionNaut miles runAvg speedWind from/ knotsBaromVisibWave heightAir tempDewpointWater temp
2017-Aug-20 00:30N 61°01' E 028°27'2 3.5
2017-Aug-20 00:00N 61°02' E 028°24'3 5.5
2017-Aug-19 23:30N 61°04' E 028°19'1 1.3
2017-Aug-19 23:00N 61°04' E 028°18'1 2.9
2017-Aug-19 22:30N 61°05' E 028°16'2 4.6
2017-Aug-19 22:00N 61°07' E 028°19'4 7.3
2017-Aug-19 21:30N 61°10' E 028°23'4 7.3
2017-Aug-19 21:00N 61°11' E 028°31'4 7.4
2017-Aug-19 20:30N 61°12' E 028°38'4 7.4
2017-Aug-19 20:00N 61°14' E 028°44'3 5.2
2017-Aug-19 19:30N 61°14' E 028°49'0 0.1
2017-Aug-19 19:00N 61°14' E 028°49'0 0.0
2017-Aug-19 18:30N 61°14' E 028°49'0 0.0
2017-Aug-19 18:00N 61°14' E 028°49'0 0.0
2017-Aug-19 17:30N 61°14' E 028°49'0 0.0
2017-Aug-19 17:00N 61°14' E 028°49'0 0.0
2017-Aug-19 16:30N 61°14' E 028°49'0 0.0
2017-Aug-19 16:00N 61°14' E 028°49'0 0.0
2017-Aug-19 15:30N 61°14' E 028°49'0 0.0
2017-Aug-19 15:00N 61°14' E 028°49'0 0.0
2017-Aug-19 14:00N 61°14' E 028°49'0 0.0
2017-Aug-19 13:30N 61°14' E 028°49'0 0.0
2017-Aug-19 13:00N 61°14' E 028°49'0 0.0
2017-Aug-19 12:30N 61°14' E 028°49'0 0.0
2017-Aug-19 12:00N 61°14' E 028°49'0 0.0
2017-Aug-19 11:30N 61°14' E 028°49'0 0.0
2017-Aug-19 11:00N 61°14' E 028°49'0 0.0
2017-Aug-19 10:30N 61°14' E 028°49'0 0.0
2017-Aug-19 10:00N 61°14' E 028°49'0 0.0
2017-Aug-19 09:30N 61°14' E 028°49'0 0.0
2017-Aug-19 09:00N 61°14' E 028°49'0 0.0
2017-Aug-19 08:30N 61°14' E 028°49'0 0.0
2017-Aug-19 08:00N 61°14' E 028°49'0 0.0
2017-Aug-19 07:30N 61°14' E 028°49'2 3.5
2017-Aug-19 07:00N 61°15' E 028°46'3 6.5
2017-Aug-19 06:30N 61°13' E 028°40'3 6.8
2017-Aug-19 06:01N 61°11' E 028°34'3 6.8
2017-Aug-19 05:30N 61°10' E 028°27'3 6.2
2017-Aug-19 05:00N 61°09' E 028°22'2 4.6
2017-Aug-19 04:31N 61°08' E 028°18'3 5.6
2017-Aug-19 04:00N 61°05' E 028°16'1 2.7
2017-Aug-19 03:30N 61°04' E 028°18'1 1.2
2017-Aug-19 03:00N 61°04' E 028°19'1 2.3
2017-Aug-19 02:30N 61°03' E 028°21'2 3.4
2017-Aug-19 02:00N 61°02' E 028°24'1 2.4
2017-Aug-19 01:31N 61°02' E 028°26'3 5.5
2017-Aug-19 01:00N 60°59' E 028°30'3 5.1
2017-Aug-19 00:31N 60°58' E 028°33'3 5.5
2017-Aug-19 00:00N 60°55' E 028°36'1 1.8
2017-Aug-18 23:30N 60°54' E 028°37'0 0.0
2017-Aug-18 23:00N 60°54' E 028°37'1 1.7
2017-Aug-18 22:30N 60°54' E 028°37'1 2.1
2017-Aug-18 22:00N 60°53' E 028°39'1 2.9
2017-Aug-18 21:30N 60°52' E 028°41'2 4.8
2017-Aug-18 21:00N 60°50' E 028°44'0 0.3
2017-Aug-18 20:30N 60°50' E 028°44'1 2.3
2017-Aug-18 20:00N 60°49' E 028°44'0 0.0
2017-Aug-18 19:30N 60°49' E 028°44'0 0.2
2017-Aug-18 18:58N 60°49' E 028°44'0 0.0
2017-Aug-18 18:28N 60°49' E 028°44'0 0.0
2017-Aug-18 17:58N 60°49' E 028°44'0 0.0
2017-Aug-18 17:28N 60°49' E 028°44'0 0.0
2017-Aug-18 16:58N 60°49' E 028°44'0 0.0
2017-Aug-18 16:30N 60°49' E 028°44'2 4.2
2017-Aug-18 16:01N 60°47' E 028°43'3 5.8
2017-Aug-18 15:31N 60°44' E 028°41'3 5.5
2017-Aug-18 15:01N 60°41' E 028°41'3 6.9
2017-Aug-18 14:30N 60°39' E 028°36'6 6.3
2017-Aug-18 13:31N 60°35' E 028°26'3 5.7
2017-Aug-18 13:00N 60°33' E 028°22'3 5.6
2017-Aug-18 12:30N 60°30' E 028°22'3 5.9
2017-Aug-18 12:00N 60°27' E 028°20'3 6.6
2017-Aug-18 11:31N 60°24' E 028°20'3 6.6
2017-Aug-18 11:01N 60°21' E 028°21'3 6.7
2017-Aug-18 10:30N 60°18' E 028°25'3 6.9
2017-Aug-18 10:01N 60°16' E 028°31'3 6.8
2017-Aug-18 09:31N 60°14' E 028°37'3 6.2
2017-Aug-18 09:00N 60°13' E 028°42'3 6.3
2017-Aug-18 08:30N 60°11' E 028°48'3 6.3
2017-Aug-18 07:59N 60°10' E 028°54'3 6.3
2017-Aug-18 07:31N 60°08' E 028°56'3 6.7
2017-Aug-18 07:00N 60°04' E 028°59'3 5.7
2017-Aug-18 06:30N 60°02' E 029°03'3 6.5
2017-Aug-18 06:00N 60°02' E 029°10'4 6.5
2017-Aug-18 05:23N 60°02' E 029°18'2 6.7
2017-Aug-18 05:00N 60°02' E 029°23'3 6.4
2017-Aug-18 04:30N 60°01' E 029°29'4 6.5
2017-Aug-18 03:53N 60°00' E 029°37'3 6.9
2017-Aug-18 03:30N 59°60' E 029°42'3 6.8
2017-Aug-18 03:00N 59°58' E 029°48'3 6.7
2017-Aug-18 02:30N 59°57' E 029°54'3 6.6
2017-Aug-18 02:00N 59°55' E 029°60'3 7.0
2017-Aug-18 01:31N 59°54' E 030°06'3 6.4
2017-Aug-18 01:00N 59°54' E 030°13'3 6.7
2017-Aug-18 00:30N 59°56' E 030°17'4 7.1
2017-Aug-18 00:00N 59°57' E 030°24'2 3.6
2017-Aug-17 23:27N 59°55' E 030°24'0 0.0
2017-Aug-17 22:57N 59°55' E 030°24'0 0.0
2017-Aug-17 22:27N 59°55' E 030°24'0 0.0
2017-Aug-17 21:54N 59°55' E 030°24'0 0.0
2017-Aug-17 21:27N 59°55' E 030°24'0 0.0
2017-Aug-17 21:00N 59°55' E 030°24'0 0.0
2017-Aug-17 20:30N 59°55' E 030°24'0 0.0
2017-Aug-17 19:57N 59°55' E 030°24'0 0.0
2017-Aug-17 19:30N 59°55' E 030°24'0 0.0
2017-Aug-17 19:00N 59°55' E 030°24'0 0.0
2017-Aug-17 18:24N 59°55' E 030°24'0 0.0
2017-Aug-17 18:00N 59°55' E 030°24'0 0.0
2017-Aug-17 17:21N 59°55' E 030°24'0 0.0
2017-Aug-17 17:00N 59°55' E 030°24'0 0.0
2017-Aug-17 16:30N 59°55' E 030°24'0 0.0
2017-Aug-17 16:00N 59°55' E 030°24'0 0.0
2017-Aug-17 15:27N 59°55' E 030°24'0 0.0
2017-Aug-17 14:57N 59°55' E 030°24'0 0.0
2017-Aug-17 14:30N 59°55' E 030°24'0 0.0
2017-Aug-17 14:00N 59°55' E 030°24'0 0.0
2017-Aug-17 13:27N 59°55' E 030°24'0 0.0
2017-Aug-17 12:57N 59°55' E 030°24'0 0.0
2017-Aug-17 12:30N 59°55' E 030°24'0 0.0
2017-Aug-17 11:57N 59°55' E 030°24'0 0.0
2017-Aug-17 11:27N 59°55' E 030°24'0 0.0
2017-Aug-17 10:57N 59°55' E 030°24'0 0.0
2017-Aug-17 09:45N 59°55' E 030°24'0 0.0
2017-Aug-17 09:24N 59°55' E 030°24'0 0.0
2017-Aug-17 09:00N 59°55' E 030°24'0 0.0
2017-Aug-17 08:30N 59°55' E 030°24'0 0.0
2017-Aug-17 07:54N 59°55' E 030°24'0 0.0
2017-Aug-17 07:30N 59°55' E 030°24'0 0.0
2017-Aug-17 06:57N 59°55' E 030°24'0 0.0
2017-Aug-17 06:24N 59°55' E 030°24'0 0.0
2017-Aug-17 05:57N 59°55' E 030°24'0 0.0
2017-Aug-17 05:27N 59°55' E 030°24'0 0.0
2017-Aug-17 04:57N 59°55' E 030°24'0 0.0
2017-Aug-17 04:06N 59°55' E 030°24'0 0.0
2017-Aug-17 03:57N 59°55' E 030°24'0 0.0
2017-Aug-17 03:27N 59°55' E 030°24'0 0.0
2017-Aug-17 03:00N 59°55' E 030°24'0 1.0
2017-Aug-17 02:30N 59°55' E 030°25'4 8.4
2017-Aug-17 01:58N 59°51' E 030°30'  
2017-Aug-10 03:59N 59°46' E 030°46'3 4.6
2017-Aug-10 03:24N 59°47' E 030°41'2 4.2
2017-Aug-10 03:00N 59°48' E 030°38'1 2.5
2017-Aug-10 02:26N 59°49' E 030°36'0 0.0
2017-Aug-10 02:00N 59°49' E 030°36'0 0.1
2017-Aug-10 01:30N 59°49' E 030°36'2 4.0
2017-Aug-10 01:00N 59°50' E 030°33'  
Track history (hours):
 
Tides and Currents Weather Stations Pressure Air Temp Water Temp Dewpoint Dewpoint Depression Visibility Wind Speed Wind Dir Waves Ship Positions

Ufimets

Last reported at 2017-Aug-20 00:30 UTC. Time now 2017-Aug-20 00:35 UTC.
Position N 61°01' E 028°27'.

Length 82 m; draft 1.8 m.

Type: Ship. MMSI: 27343260.

Date/timePositionNaut miles runAvg speedWind from/ knotsBaromVisibWave heightAir tempDewpointWater temp
2017-Aug-20 00:30N 61°01' E 028°27'2 3.5
2017-Aug-20 00:00N 61°02' E 028°24'3 5.5
2017-Aug-19 23:30N 61°04' E 028°19'1 1.3
2017-Aug-19 23:00N 61°04' E 028°18'1 2.9
2017-Aug-19 22:30N 61°05' E 028°16'2 4.6
2017-Aug-19 22:00N 61°07' E 028°19'4 7.3
2017-Aug-19 21:30N 61°10' E 028°23'4 7.3
2017-Aug-19 21:00N 61°11' E 028°31'4 7.4
2017-Aug-19 20:30N 61°12' E 028°38'4 7.4
2017-Aug-19 20:00N 61°14' E 028°44'3 5.2
2017-Aug-19 19:30N 61°14' E 028°49'0 0.1
2017-Aug-19 19:00N 61°14' E 028°49'0 0.0
2017-Aug-19 18:30N 61°14' E 028°49'0 0.0
2017-Aug-19 18:00N 61°14' E 028°49'0 0.0
2017-Aug-19 17:30N 61°14' E 028°49'0 0.0
2017-Aug-19 17:00N 61°14' E 028°49'0 0.0
2017-Aug-19 16:30N 61°14' E 028°49'0 0.0
2017-Aug-19 16:00N 61°14' E 028°49'0 0.0
2017-Aug-19 15:30N 61°14' E 028°49'0 0.0
2017-Aug-19 15:00N 61°14' E 028°49'0 0.0
2017-Aug-19 14:00N 61°14' E 028°49'0 0.0
2017-Aug-19 13:30N 61°14' E 028°49'0 0.0
2017-Aug-19 13:00N 61°14' E 028°49'0 0.0
2017-Aug-19 12:30N 61°14' E 028°49'0 0.0
2017-Aug-19 12:00N 61°14' E 028°49'0 0.0
2017-Aug-19 11:30N 61°14' E 028°49'0 0.0
2017-Aug-19 11:00N 61°14' E 028°49'0 0.0
2017-Aug-19 10:30N 61°14' E 028°49'0 0.0
2017-Aug-19 10:00N 61°14' E 028°49'0 0.0
2017-Aug-19 09:30N 61°14' E 028°49'0 0.0
2017-Aug-19 09:00N 61°14' E 028°49'0 0.0
2017-Aug-19 08:30N 61°14' E 028°49'0 0.0
2017-Aug-19 08:00N 61°14' E 028°49'0 0.0
2017-Aug-19 07:30N 61°14' E 028°49'2 3.5
2017-Aug-19 07:00N 61°15' E 028°46'3 6.5
2017-Aug-19 06:30N 61°13' E 028°40'3 6.8
2017-Aug-19 06:01N 61°11' E 028°34'3 6.8
2017-Aug-19 05:30N 61°10' E 028°27'3 6.2
2017-Aug-19 05:00N 61°09' E 028°22'2 4.6
2017-Aug-19 04:31N 61°08' E 028°18'3 5.6
2017-Aug-19 04:00N 61°05' E 028°16'1 2.7
2017-Aug-19 03:30N 61°04' E 028°18'1 1.2
2017-Aug-19 03:00N 61°04' E 028°19'1 2.3
2017-Aug-19 02:30N 61°03' E 028°21'2 3.4
2017-Aug-19 02:00N 61°02' E 028°24'1 2.4
2017-Aug-19 01:31N 61°02' E 028°26'3 5.5
2017-Aug-19 01:00N 60°59' E 028°30'3 5.1
2017-Aug-19 00:31N 60°58' E 028°33'3 5.5
2017-Aug-19 00:00N 60°55' E 028°36'1 1.8
2017-Aug-18 23:30N 60°54' E 028°37'0 0.0
2017-Aug-18 23:00N 60°54' E 028°37'1 1.7
2017-Aug-18 22:30N 60°54' E 028°37'1 2.1
2017-Aug-18 22:00N 60°53' E 028°39'1 2.9
2017-Aug-18 21:30N 60°52' E 028°41'2 4.8
2017-Aug-18 21:00N 60°50' E 028°44'0 0.3
2017-Aug-18 20:30N 60°50' E 028°44'1 2.3
2017-Aug-18 20:00N 60°49' E 028°44'0 0.0
2017-Aug-18 19:30N 60°49' E 028°44'0 0.2
2017-Aug-18 18:58N 60°49' E 028°44'0 0.0
2017-Aug-18 18:28N 60°49' E 028°44'0 0.0
2017-Aug-18 17:58N 60°49' E 028°44'0 0.0
2017-Aug-18 17:28N 60°49' E 028°44'0 0.0
2017-Aug-18 16:58N 60°49' E 028°44'0 0.0
2017-Aug-18 16:30N 60°49' E 028°44'2 4.2
2017-Aug-18 16:01N 60°47' E 028°43'3 5.8
2017-Aug-18 15:31N 60°44' E 028°41'3 5.5
2017-Aug-18 15:01N 60°41' E 028°41'3 6.9
2017-Aug-18 14:30N 60°39' E 028°36'6 6.3
2017-Aug-18 13:31N 60°35' E 028°26'3 5.7
2017-Aug-18 13:00N 60°33' E 028°22'3 5.6
2017-Aug-18 12:30N 60°30' E 028°22'3 5.9
2017-Aug-18 12:00N 60°27' E 028°20'3 6.6
2017-Aug-18 11:31N 60°24' E 028°20'3 6.6
2017-Aug-18 11:01N 60°21' E 028°21'3 6.7
2017-Aug-18 10:30N 60°18' E 028°25'3 6.9
2017-Aug-18 10:01N 60°16' E 028°31'3 6.8
2017-Aug-18 09:31N 60°14' E 028°37'3 6.2
2017-Aug-18 09:00N 60°13' E 028°42'3 6.3
2017-Aug-18 08:30N 60°11' E 028°48'3 6.3
2017-Aug-18 07:59N 60°10' E 028°54'3 6.3
2017-Aug-18 07:31N 60°08' E 028°56'3 6.7
2017-Aug-18 07:00N 60°04' E 028°59'3 5.7
2017-Aug-18 06:30N 60°02' E 029°03'3 6.5
2017-Aug-18 06:00N 60°02' E 029°10'4 6.5
2017-Aug-18 05:23N 60°02' E 029°18'2 6.7
2017-Aug-18 05:00N 60°02' E 029°23'3 6.4
2017-Aug-18 04:30N 60°01' E 029°29'4 6.5
2017-Aug-18 03:53N 60°00' E 029°37'3 6.9
2017-Aug-18 03:30N 59°60' E 029°42'3 6.8
2017-Aug-18 03:00N 59°58' E 029°48'3 6.7
2017-Aug-18 02:30N 59°57' E 029°54'3 6.6
2017-Aug-18 02:00N 59°55' E 029°60'3 7.0
2017-Aug-18 01:31N 59°54' E 030°06'3 6.4
2017-Aug-18 01:00N 59°54' E 030°13'3 6.7
2017-Aug-18 00:30N 59°56' E 030°17'4 7.1
2017-Aug-18 00:00N 59°57' E 030°24'2 3.6
2017-Aug-17 23:27N 59°55' E 030°24'0 0.0
2017-Aug-17 22:57N 59°55' E 030°24'0 0.0
2017-Aug-17 22:27N 59°55' E 030°24'0 0.0
2017-Aug-17 21:54N 59°55' E 030°24'0 0.0
2017-Aug-17 21:27N 59°55' E 030°24'0 0.0
2017-Aug-17 21:00N 59°55' E 030°24'0 0.0
2017-Aug-17 20:30N 59°55' E 030°24'0 0.0
2017-Aug-17 19:57N 59°55' E 030°24'0 0.0
2017-Aug-17 19:30N 59°55' E 030°24'0 0.0
2017-Aug-17 19:00N 59°55' E 030°24'0 0.0
2017-Aug-17 18:24N 59°55' E 030°24'0 0.0
2017-Aug-17 18:00N 59°55' E 030°24'0 0.0
2017-Aug-17 17:21N 59°55' E 030°24'0 0.0
2017-Aug-17 17:00N 59°55' E 030°24'0 0.0
2017-Aug-17 16:30N 59°55' E 030°24'0 0.0
2017-Aug-17 16:00N 59°55' E 030°24'0 0.0
2017-Aug-17 15:27N 59°55' E 030°24'0 0.0
2017-Aug-17 14:57N 59°55' E 030°24'0 0.0
2017-Aug-17 14:30N 59°55' E 030°24'0 0.0
2017-Aug-17 14:00N 59°55' E 030°24'0 0.0
2017-Aug-17 13:27N 59°55' E 030°24'0 0.0
2017-Aug-17 12:57N 59°55' E 030°24'0 0.0
2017-Aug-17 12:30N 59°55' E 030°24'0 0.0
2017-Aug-17 11:57N 59°55' E 030°24'0 0.0
2017-Aug-17 11:27N 59°55' E 030°24'0 0.0
2017-Aug-17 10:57N 59°55' E 030°24'0 0.0
2017-Aug-17 09:45N 59°55' E 030°24'0 0.0
2017-Aug-17 09:24N 59°55' E 030°24'0 0.0
2017-Aug-17 09:00N 59°55' E 030°24'0 0.0
2017-Aug-17 08:30N 59°55' E 030°24'0 0.0
2017-Aug-17 07:54N 59°55' E 030°24'0 0.0
2017-Aug-17 07:30N 59°55' E 030°24'0 0.0
2017-Aug-17 06:57N 59°55' E 030°24'0 0.0
2017-Aug-17 06:24N 59°55' E 030°24'0 0.0
2017-Aug-17 05:57N 59°55' E 030°24'0 0.0
2017-Aug-17 05:27N 59°55' E 030°24'0 0.0
2017-Aug-17 04:57N 59°55' E 030°24'0 0.0
2017-Aug-17 04:06N 59°55' E 030°24'0 0.0
2017-Aug-17 03:57N 59°55' E 030°24'0 0.0
2017-Aug-17 03:27N 59°55' E 030°24'0 0.0
2017-Aug-17 03:00N 59°55' E 030°24'0 1.0
2017-Aug-17 02:30N 59°55' E 030°25'4 8.4
2017-Aug-17 01:58N 59°51' E 030°30'  
2017-Aug-10 03:59N 59°46' E 030°46'3 4.6
2017-Aug-10 03:24N 59°47' E 030°41'2 4.2
2017-Aug-10 03:00N 59°48' E 030°38'1 2.5
2017-Aug-10 02:26N 59°49' E 030°36'0 0.0
2017-Aug-10 02:00N 59°49' E 030°36'0 0.1
2017-Aug-10 01:30N 59°49' E 030°36'2 4.0
2017-Aug-10 01:00N 59°50' E 030°33'  

Dump ship's entire track history